GRR weather

Gerald R. Ford International Airport
Grand Rapids, Michigan, United States

Public forecast

Using degrees Fahrenheit for public forecast. Weather courtesy of forecast.io.

Current aviation weather report (METAR) for Gerald R. Ford International Airport

Retrieved 2019/10/18 07:53 UTC (23 minutes ago):

KGRR 180753Z AUTO 00000KT 10SM CLR 03/01 A3005 RMK AO2 SLP181 T00280006

Aviation forecast (TAF) for Gerald R. Ford International Airport

Retrieved 2019/10/18 06:22 UTC (2 hours ago):

TAF KGRR 180520Z 1806/1906 VRB03KT P6SM SKC FM181600 17005KT P6SM FEW250